Time;durP1;ratioP1;P1;durP2;ratioP2;P2;SDS_P1;SDS_P2;PMS_P1;PMS_P2;Temp;Humidity;BMP_temperature;BMP_pressure;BME280_temperature;BME280_humidity;BME280_pressure;Samples;Min_cycle;Max_cycle;Signal;HPM_P1;HPM_P2
2022/05/11 00:00:14;;;;;;;5.97;4.70;;;;;;;14.80;56.53;95250.16;4964843;28;20297;-68
2022/05/11 00:02:40;;;;;;;7.70;4.80;;;;;;;14.67;57.44;95250.69;4961195;28;20296;-67
2022/05/11 00:05:08;;;;;;;4.93;4.47;;;;;;;14.69;57.48;95261.94;4941918;28;20219;-67
2022/05/11 00:07:33;;;;;;;8.20;4.78;;;;;;;14.74;57.85;95261.44;4945547;28;20228;-66
2022/05/11 00:10:00;;;;;;;6.45;4.90;;;;;;;14.74;57.21;95256.97;4953083;28;20239;-66
2022/05/11 00:12:26;;;;;;;5.20;4.72;;;;;;;14.69;57.43;95261.94;4969479;28;20208;-67
2022/05/11 00:14:52;;;;;;;5.22;4.70;;;;;;;14.69;57.80;95263.75;4968750;28;20225;-67
2022/05/11 00:17:18;;;;;;;6.65;4.80;;;;;;;14.35;58.98;95254.22;4965962;28;20212;-67
2022/05/11 00:19:43;;;;;;;5.20;4.70;;;;;;;14.39;59.00;95247.63;4966218;28;20254;-67
2022/05/11 00:22:08;;;;;;;6.57;4.90;;;;;;;14.52;58.79;95253.25;4952516;28;20286;-67
2022/05/11 00:24:34;;;;;;;7.07;5.35;;;;;;;14.56;57.87;95248.41;4963803;28;20201;-67
2022/05/11 00:27:02;;;;;;;7.32;5.00;;;;;;;14.46;57.91;95240.66;4965280;28;20215;-67
2022/05/11 00:29:27;;;;;;;5.18;4.57;;;;;;;14.22;59.25;95243.34;4976548;28;20243;-67
2022/05/11 00:31:54;;;;;;;6.13;5.10;;;;;;;14.21;59.17;95233.78;4976186;28;20227;-67
2022/05/11 00:34:19;;;;;;;5.72;5.15;;;;;;;14.21;58.87;95233.78;4983826;28;20251;-67
2022/05/11 00:36:45;;;;;;;5.20;4.80;;;;;;;14.29;58.59;95236.41;4962650;28;20227;-67
2022/05/11 00:39:11;;;;;;;6.32;5.43;;;;;;;14.21;58.06;95225.84;4962841;28;20219;-67
2022/05/11 00:41:42;;;;;;;5.68;4.72;;;;;;;14.23;57.77;95229.97;4967155;28;20219;-67
2022/05/11 00:44:09;;;;;;;7.20;4.85;;;;;;;14.31;57.75;95226.47;4960137;28;20217;-67
2022/05/11 00:46:58;;;;;;;6.55;4.82;;;;;;;13.99;59.33;95230.03;4961289;28;20227;-67
2022/05/11 00:49:48;;;;;;;6.22;4.82;;;;;;;14.11;59.33;95242.72;4983124;28;20235;-68
2022/05/11 00:53:09;;;;;;;7.75;5.43;;;;;;;13.99;60.02;95237.94;4968137;28;20231;-68
2022/05/11 00:55:40;;;;;;;6.60;5.15;;;;;;;13.91;60.58;95230.84;4908479;29;20231;-67
2022/05/11 00:58:17;;;;;;;9.10;5.35;;;;;;;13.96;60.83;95233.00;4885144;29;20231;-68
2022/05/11 01:00:44;;;;;;;6.32;5.72;;;;;;;13.93;60.91;95233.34;4871632;29;20218;-67
2022/05/11 01:03:22;;;;;;;8.30;5.18;;;;;;;13.93;60.83;95238.63;4910364;29;20221;-68
2022/05/11 01:05:48;;;;;;;7.63;5.15;;;;;;;13.63;61.78;95252.34;4910814;29;20233;-67
2022/05/11 01:08:18;;;;;;;6.80;4.95;;;;;;;13.75;61.59;95244.09;4922584;29;20230;-68
2022/05/11 01:10:44;;;;;;;6.47;5.20;;;;;;;13.81;61.37;95248.69;4909728;29;20261;-67
2022/05/11 01:13:13;;;;;;;7.38;5.50;;;;;;;13.05;63.81;95249.75;4911441;29;20227;-67
2022/05/11 01:15:40;;;;;;;8.13;5.45;;;;;;;13.36;63.20;95250.00;4899227;29;20224;-68
2022/05/11 01:18:08;;;;;;;7.25;5.20;;;;;;;13.38;62.99;95248.03;4916938;29;20201;-68
2022/05/11 01:20:38;;;;;;;5.50;5.00;;;;;;;13.42;62.83;95249.38;4923717;29;20300;-67
2022/05/11 01:23:15;;;;;;;9.88;5.30;;;;;;;13.63;61.97;95252.34;4920462;29;20234;-67
2022/05/11 01:25:41;;;;;;;6.03;4.78;;;;;;;13.55;61.58;95246.22;4921084;28;20211;-67
2022/05/11 01:28:11;;;;;;;5.30;4.80;;;;;;;13.62;60.84;95245.38;4977080;28;20239;-67
2022/05/11 01:30:41;;;;;;;5.47;4.65;;;;;;;13.45;61.05;95236.63;4957505;28;20203;-67
2022/05/11 01:33:07;;;;;;;6.93;4.78;;;;;;;13.53;60.63;95232.38;4970242;28;20212;-67
2022/05/11 01:35:42;;;;;;;5.55;4.40;;;;;;;13.55;60.58;95233.84;4976916;28;20225;-66
2022/05/11 01:38:33;;;;;;;5.15;4.75;;;;;;;13.66;59.75;95238.81;4977942;28;20224;-67
2022/05/11 01:40:58;;;;;;;6.18;4.78;;;;;;;13.63;59.78;95239.13;4969631;28;20243;-67
2022/05/11 01:43:27;;;;;;;6.05;5.45;;;;;;;13.60;60.29;95230.69;4963899;28;20225;-67
2022/05/11 01:45:53;;;;;;;5.70;4.93;;;;;;;13.58;60.67;95237.94;4958903;28;20229;-67
2022/05/11 01:48:19;;;;;;;7.13;5.40;;;;;;;13.23;62.02;95234.59;4949338;28;20201;-67
2022/05/11 01:50:45;;;;;;;6.18;5.28;;;;;;;13.25;62.04;95238.72;4970719;28;20228;-68
2022/05/11 01:53:11;;;;;;;5.60;5.10;;;;;;;13.32;61.79;95233.66;4978664;28;20243;-67
2022/05/11 01:55:36;;;;;;;6.20;5.60;;;;;;;13.16;62.59;95236.25;4983455;28;20220;-68
2022/05/11 01:58:03;;;;;;;6.32;5.03;;;;;;;13.23;62.27;95240.72;4972162;28;20303;-67
2022/05/11 02:00:30;;;;;;;6.38;5.85;;;;;;;12.98;63.77;95242.47;4973474;28;20204;-68
2022/05/11 02:02:55;;;;;;;6.97;5.40;;;;;;;12.91;64.10;95235.34;4962739;28;20212;-66
2022/05/11 02:08:05;;;;;;;5.72;5.32;;;;;;;13.14;63.08;95235.56;4963725;28;20291;-66
2022/05/11 02:10:30;;;;;;;8.15;5.43;;;;;;;13.01;63.36;95236.03;4962628;28;20224;-66
2022/05/11 02:12:57;;;;;;;6.55;5.65;;;;;;;13.13;62.67;95239.22;4961486;28;20232;-68
2022/05/11 02:15:25;;;;;;;6.78;5.80;;;;;;;13.07;63.02;95239.84;4968854;28;20290;-68
2022/05/11 02:17:51;;;;;;;7.45;5.45;;;;;;;13.01;63.36;95238.66;4957857;28;20236;-66
2022/05/11 02:20:18;;;;;;;6.32;5.63;;;;;;;12.98;64.05;95244.28;4950783;28;20221;-66
2022/05/11 02:22:45;;;;;;;8.25;5.70;;;;;;;13.09;63.45;95238.69;4959554;28;20281;-66
2022/05/11 02:25:13;;;;;;;7.68;5.53;;;;;;;13.17;62.86;95240.53;4956605;28;20224;-66
2022/05/11 02:27:39;;;;;;;6.70;6.00;;;;;;;13.29;62.38;95243.72;4963834;28;20212;-67
2022/05/11 02:30:07;;;;;;;6.15;5.55;;;;;;;13.31;62.26;95236.44;4967272;28;20215;-66
2022/05/11 02:32:34;;;;;;;7.35;6.50;;;;;;;13.37;62.33;95233.19;4983862;28;20234;-68
2022/05/11 02:35:18;;;;;;;6.35;5.72;;;;;;;13.32;62.28;95228.38;4973599;28;20271;-69
2022/05/11 02:37:45;;;;;;;8.25;6.07;;;;;;;13.14;63.71;95228.47;4985826;28;20228;-69
2022/05/11 02:40:13;;;;;;;6.47;5.88;;;;;;;13.26;63.54;95234.31;4979114;28;20215;-68
2022/05/11 02:42:39;;;;;;;9.98;5.65;;;;;;;13.30;63.29;95232.16;4967037;28;20404;-67
2022/05/11 02:45:05;;;;;;;6.47;5.88;;;;;;;13.43;62.94;95235.16;4962422;28;20230;-68
2022/05/11 02:47:31;;;;;;;7.47;6.13;;;;;;;13.24;63.43;95230.97;4967345;28;20235;-66
2022/05/11 02:49:56;;;;;;;6.03;5.43;;;;;;;13.37;63.07;95233.19;4974908;28;20228;-67
2022/05/11 02:52:22;;;;;;;6.30;5.70;;;;;;;13.39;62.92;95233.81;4975404;28;20228;-67
2022/05/11 02:54:48;;;;;;;8.05;5.82;;;;;;;13.00;63.84;95234.38;4976644;28;20699;-68
2022/05/11 02:57:15;;;;;;;6.18;5.68;;;;;;;13.20;63.37;95237.56;4967917;28;20277;-67
2022/05/11 02:59:40;;;;;;;8.27;6.35;;;;;;;13.25;63.33;95244.00;4977285;28;20365;-67
2022/05/11 03:02:06;;;;;;;7.18;5.75;;;;;;;13.10;63.49;95243.00;4961916;28;20224;-66
2022/05/11 03:04:32;;;;;;;6.15;5.55;;;;;;;13.09;63.99;95241.31;4963450;28;20226;-66
2022/05/11 03:06:57;;;;;;;6.53;5.88;;;;;;;13.14;63.76;95249.59;4981788;28;20369;-67
2022/05/11 03:09:22;;;;;;;9.75;6.22;;;;;;;13.21;63.66;95253.25;4970508;28;20215;-67
2022/05/11 03:11:48;;;;;;;9.50;5.88;;;;;;;13.23;63.23;95250.44;4975747;28;20224;-67
2022/05/11 03:14:14;;;;;;;6.00;5.47;;;;;;;13.30;62.75;95250.66;4957087;28;20256;-67
2022/05/11 03:16:40;;;;;;;8.95;6.20;;;;;;;13.29;62.87;95254.28;4967355;28;20310;-67
2022/05/11 03:19:06;;;;;;;6.35;5.75;;;;;;;13.30;62.83;95264.69;4971101;28;20233;-67
2022/05/11 03:21:32;;;;;;;10.10;5.97;;;;;;;13.28;62.77;95255.25;4982652;28;20200;-68
2022/05/11 03:23:59;;;;;;;6.72;6.03;;;;;;;13.25;62.90;95264.31;4965311;28;20205;-67
2022/05/11 03:26:24;;;;;;;6.80;5.38;;;;;;;13.25;63.02;95254.56;4975613;28;20237;-67
2022/05/11 03:28:50;;;;;;;7.72;6.03;;;;;;;13.25;62.59;95259.84;4961718;28;20224;-68
2022/05/11 03:31:16;;;;;;;6.70;6.00;;;;;;;13.01;63.00;95257.16;4968108;28;20230;-68
2022/05/11 03:36:26;;;;;;;9.93;6.15;;;;;;;13.35;60.83;95264.19;4965494;28;20243;-67
2022/05/11 03:38:51;;;;;;;9.80;6.38;;;;;;;13.35;60.43;95259.72;4965696;28;20213;-68
2022/05/11 03:41:17;;;;;;;8.13;6.55;;;;;;;13.42;59.92;95260.75;4964812;28;20231;-67
2022/05/11 03:43:43;;;;;;;6.68;5.70;;;;;;;13.42;59.49;95257.28;4965127;28;20225;-68
2022/05/11 03:46:08;;;;;;;9.13;6.35;;;;;;;13.44;58.79;95265.84;4960728;28;20233;-68
2022/05/11 03:48:34;;;;;;;6.07;5.20;;;;;;;13.40;58.69;95260.06;4948662;28;20209;-67
2022/05/11 03:51:00;;;;;;;7.97;5.70;;;;;;;12.99;60.63;95267.03;4965674;28;20259;-67
2022/05/11 03:53:26;;;;;;;8.77;6.22;;;;;;;13.18;60.26;95260.69;4972301;28;20220;-67
2022/05/11 03:55:51;;;;;;;6.68;5.47;;;;;;;13.29;60.12;95267.50;4968747;28;20227;-68
2022/05/11 03:58:17;;;;;;;7.05;6.30;;;;;;;12.93;62.71;95275.59;4970460;28;20259;-68
2022/05/11 04:00:42;;;;;;;11.18;6.32;;;;;;;13.10;62.38;95271.22;4964384;28;20239;-68
2022/05/11 04:03:08;;;;;;;8.52;6.70;;;;;;;12.91;63.16;95273.13;4965792;28;20208;-68
2022/05/11 04:05:34;;;;;;;10.07;6.65;;;;;;;12.79;63.79;95283.13;4967640;28;20488;-68
2022/05/11 04:07:59;;;;;;;10.45;6.85;;;;;;;12.42;64.54;95274.72;4963988;28;20235;-69
2022/05/11 04:10:25;;;;;;;8.65;6.88;;;;;;;12.39;65.70;95273.22;4961652;28;20232;-69
2022/05/11 04:12:50;;;;;;;7.55;6.35;;;;;;;12.78;64.76;95284.13;4965203;28;20220;-67
2022/05/11 04:15:16;;;;;;;8.35;6.82;;;;;;;13.06;63.75;95291.00;4963935;28;20212;-67
2022/05/11 04:17:44;;;;;;;9.02;6.53;;;;;;;13.12;63.32;95285.88;4978216;28;20231;-67
2022/05/11 04:20:15;;;;;;;8.63;6.85;;;;;;;13.22;61.25;95289.22;4961133;28;20224;-67
2022/05/11 04:22:40;;;;;;;7.35;6.63;;;;;;;13.02;61.75;95301.06;4951814;28;20323;-67
2022/05/11 04:25:06;;;;;;;7.22;6.53;;;;;;;12.57;63.77;95300.34;4963932;28;20314;-69
2022/05/11 04:27:33;;;;;;;9.15;7.00;;;;;;;12.60;64.10;95301.84;4962995;28;20255;-68
2022/05/11 04:30:00;;;;;;;9.55;7.30;;;;;;;12.94;63.81;95314.22;4958240;28;20213;-68
2022/05/11 04:32:26;;;;;;;9.85;7.00;;;;;;;12.99;62.73;95319.81;4978177;28;20227;-68
2022/05/11 04:34:52;;;;;;;11.20;6.65;;;;;;;13.00;62.93;95308.31;4966787;28;20236;-69
2022/05/11 04:37:17;;;;;;;13.15;7.25;;;;;;;13.20;62.50;95309.69;4957377;28;20215;-68
2022/05/11 04:39:43;;;;;;;8.63;7.72;;;;;;;13.23;62.38;95316.44;4981492;28;20216;-68
2022/05/11 04:42:09;;;;;;;7.78;6.97;;;;;;;13.08;61.62;95315.44;4964931;28;20212;-67
2022/05/11 04:44:35;;;;;;;9.27;6.30;;;;;;;13.28;60.56;95316.00;4971715;28;20223;-68
2022/05/11 04:47:13;;;;;;;12.73;6.28;;;;;;;13.43;60.02;95323.13;4966824;28;20231;-67
2022/05/11 04:49:39;;;;;;;11.13;6.78;;;;;;;13.54;60.01;95318.53;4977625;28;20289;-66
2022/05/11 04:52:08;;;;;;;11.05;7.18;;;;;;;13.72;59.71;95327.16;4968605;28;20228;-66
2022/05/11 04:54:35;;;;;;;10.55;7.20;;;;;;;13.76;59.52;95325.00;4970523;28;20322;-67
2022/05/11 04:57:01;;;;;;;9.90;7.63;;;;;;;13.80;59.47;95313.94;4969209;28;20331;-66
2022/05/11 04:59:26;;;;;;;10.75;7.20;;;;;;;13.85;59.82;95322.22;4971810;28;20234;-67
2022/05/11 05:01:51;;;;;;;11.48;7.82;;;;;;;13.90;59.25;95332.31;4975401;28;20228;-67
2022/05/11 05:04:19;;;;;;;8.82;7.90;;;;;;;13.89;59.37;95330.63;4961921;28;20219;-67
2022/05/11 05:06:45;;;;;;;10.07;7.20;;;;;;;13.87;59.47;95327.31;4957500;28;20208;-69
2022/05/11 05:09:10;;;;;;;9.40;7.38;;;;;;;13.99;59.12;95328.66;4953914;28;20255;-68
2022/05/11 05:11:36;;;;;;;9.90;8.30;;;;;;;14.09;59.07;95329.34;4974573;28;20234;-68
2022/05/11 05:14:04;;;;;;;12.23;7.75;;;;;;;14.08;59.10;95327.66;4957756;28;20287;-68
2022/05/11 05:16:31;;;;;;;14.80;8.98;;;;;;;14.09;58.91;95331.97;4959854;28;20228;-66
2022/05/11 05:18:56;;;;;;;10.02;7.85;;;;;;;14.09;59.27;95336.44;4965436;28;20226;-69
2022/05/11 05:21:22;;;;;;;12.27;8.45;;;;;;;14.22;59.52;95330.63;4967791;28;20231;-65
2022/05/11 05:23:47;;;;;;;10.95;8.02;;;;;;;14.19;59.54;95329.13;4985380;28;20220;-66
2022/05/11 05:26:13;;;;;;;10.65;7.70;;;;;;;14.12;59.45;95339.56;4970970;28;20220;-66
2022/05/11 05:31:25;;;;;;;9.43;7.57;;;;;;;14.23;58.46;95337.59;4960486;28;20778;-65
2022/05/11 05:33:55;;;;;;;8.38;7.15;;;;;;;14.41;57.98;95343.53;4958713;28;20294;-66
2022/05/11 05:36:20;;;;;;;7.90;7.10;;;;;;;14.48;57.77;95346.31;4965401;28;20248;-66
2022/05/11 05:38:46;;;;;;;8.20;6.68;;;;;;;14.54;57.10;95357.09;4962546;28;20322;-65
2022/05/11 05:41:11;;;;;;;7.78;7.00;;;;;;;14.55;57.19;95350.81;4969332;28;20219;-66
2022/05/11 05:43:38;;;;;;;8.55;7.50;;;;;;;14.54;57.58;95351.81;4969059;28;20344;-66
2022/05/11 05:46:04;;;;;;;9.52;7.50;;;;;;;14.71;56.57;95354.44;4957709;28;20221;-68
2022/05/11 05:48:29;;;;;;;11.38;7.80;;;;;;;14.69;57.27;95356.41;4950175;28;20204;-68
2022/05/11 05:51:06;;;;;;;12.60;7.97;;;;;;;14.80;57.16;95355.22;4977954;28;20208;-68
2022/05/11 05:53:32;;;;;;;11.18;7.78;;;;;;;14.84;56.90;95361.84;4975797;28;20303;-68
2022/05/11 05:55:58;;;;;;;13.40;8.73;;;;;;;14.83;56.88;95366.28;4965152;28;20259;-68
2022/05/11 05:58:23;;;;;;;11.73;8.02;;;;;;;14.81;57.07;95372.75;4964303;28;20312;-67
2022/05/11 06:00:52;;;;;;;11.30;8.05;;;;;;;14.93;56.76;95364.28;4969034;28;20289;-68
2022/05/11 06:03:22;;;;;;;11.15;7.88;;;;;;;14.84;57.37;95377.72;4970077;28;20192;-68
2022/05/11 06:05:48;;;;;;;9.02;7.28;;;;;;;14.95;56.66;95374.72;4967344;28;20320;-68
2022/05/11 06:08:16;;;;;;;10.20;7.53;;;;;;;15.05;56.13;95366.56;4971963;28;20224;-69
2022/05/11 06:10:46;;;;;;;7.78;6.35;;;;;;;15.10;54.90;95366.88;4968943;28;20228;-65
2022/05/11 06:13:14;;;;;;;8.50;6.78;;;;;;;15.31;54.22;95363.66;4980795;28;20279;-72
2022/05/11 06:15:40;;;;;;;8.90;6.53;;;;;;;15.29;53.60;95377.09;4970092;28;20226;-68
2022/05/11 06:18:07;;;;;;;54.08;9.68;;;;;;;15.28;53.70;95375.41;4975729;28;20288;-64
2022/05/11 06:20:34;;;;;;;10.30;6.95;;;;;;;15.33;53.66;95370.44;4955420;28;20307;-68
2022/05/11 06:22:59;;;;;;;8.07;6.68;;;;;;;15.38;53.71;95378.69;4968162;28;20227;-68
2022/05/11 06:25:25;;;;;;;8.60;7.38;;;;;;;15.41;53.66;95381.00;4964596;28;20279;-67
2022/05/11 06:27:51;;;;;;;9.90;7.55;;;;;;;15.51;53.31;95377.31;4956943;28;20299;-67
2022/05/11 06:30:17;;;;;;;7.43;6.47;;;;;;;15.61;53.38;95375.25;4964197;28;20215;-67
2022/05/11 06:32:42;;;;;;;11.80;6.07;;;;;;;15.61;52.19;95375.25;4968397;28;20228;-67
2022/05/11 06:35:09;;;;;;;8.10;5.95;;;;;;;15.71;51.86;95373.25;4962089;28;20237;-69
2022/05/11 06:37:40;;;;;;;6.90;6.03;;;;;;;15.72;51.47;95372.25;4962364;28;20291;-66
2022/05/11 06:40:06;;;;;;;6.65;5.70;;;;;;;15.75;52.19;95374.56;4971947;28;20231;-68
2022/05/11 06:42:32;;;;;;;6.85;5.53;;;;;;;15.81;51.76;95371.19;4965383;28;20212;-68
2022/05/11 06:44:57;;;;;;;7.35;5.53;;;;;;;15.84;50.67;95378.81;4965688;28;20199;-70
2022/05/11 06:47:22;;;;;;;10.13;6.60;;;;;;;15.93;50.77;95378.75;4969615;28;20227;-69
2022/05/11 06:49:48;;;;;;;9.10;5.55;;;;;;;15.95;50.30;95379.41;4966875;28;20258;-67
2022/05/11 06:52:17;;;;;;;6.22;5.40;;;;;;;16.02;49.97;95372.41;4967743;28;20248;-68
2022/05/11 07:00:11;;;;;;;6.35;5.65;;;;;;;16.17;50.04;95373.28;4962865;28;20227;-72
2022/05/11 07:02:37;;;;;;;6.95;5.97;;;;;;;16.22;49.49;95373.56;4975721;28;20225;-66
2022/05/11 07:05:05;;;;;;;8.70;6.35;;;;;;;16.26;48.80;95368.75;4959098;28;20311;-65
2022/05/11 07:07:31;;;;;;;7.15;5.85;;;;;;;16.28;48.84;95366.75;4968530;28;20220;-66
2022/05/11 07:09:56;;;;;;;6.70;6.00;;;;;;;16.27;49.11;95370.38;4974839;28;20233;-69
2022/05/11 07:12:25;;;;;;;5.88;5.28;;;;;;;16.33;48.88;95367.00;4988181;28;20200;-66
2022/05/11 07:14:57;;;;;;;8.27;5.35;;;;;;;16.38;48.80;95363.81;4981278;28;20219;-68
2022/05/11 07:17:42;;;;;;;8.43;6.00;;;;;;;16.55;48.36;95360.03;4972249;28;20227;-68
2022/05/11 07:20:08;;;;;;;7.10;5.43;;;;;;;16.70;48.17;95360.84;4963080;28;20259;-72
2022/05/11 07:22:33;;;;;;;9.52;4.95;;;;;;;16.84;47.14;95361.09;4964453;28;20252;-67
2022/05/11 07:24:58;;;;;;;7.88;4.88;;;;;;;16.79;46.69;95360.84;4970394;28;20240;-66
2022/05/11 07:27:24;;;;;;;5.53;4.90;;;;;;;16.83;45.48;95354.13;4971448;28;20211;-67
2022/05/11 07:29:51;;;;;;;8.70;5.30;;;;;;;16.85;46.18;95358.25;4966568;28;20994;-67
2022/05/11 07:32:16;;;;;;;6.45;4.72;;;;;;;16.95;45.02;95358.00;4979608;28;20229;-65
2022/05/11 07:34:42;;;;;;;8.20;4.93;;;;;;;16.96;44.85;95355.16;4966304;28;20341;-66
2022/05/11 07:37:07;;;;;;;5.93;4.90;;;;;;;16.95;45.12;95352.69;4961973;28;20239;-66
2022/05/11 07:39:33;;;;;;;5.63;3.85;;;;;;;17.05;44.97;95353.22;4981984;28;20251;-66
2022/05/11 07:41:59;;;;;;;9.20;4.85;;;;;;;17.09;44.08;95349.19;4966098;28;20303;-72
2022/05/11 07:44:25;;;;;;;6.30;4.80;;;;;;;17.17;44.13;95345.63;4977764;28;20228;-67
2022/05/11 07:46:52;;;;;;;9.80;5.38;;;;;;;17.28;44.18;95342.50;4966502;28;20229;-66
2022/05/11 07:49:18;;;;;;;7.18;5.55;;;;;;;17.32;43.41;95353.56;4978573;28;20238;-70
2022/05/11 07:51:49;;;;;;;7.07;4.90;;;;;;;17.31;43.86;95334.16;4957829;28;20209;-70
2022/05/11 07:54:15;;;;;;;8.73;5.68;;;;;;;17.41;43.65;95341.84;4963899;28;20201;-70
2022/05/11 08:02:08;;;;;;;5.28;4.30;;;;;;;17.51;42.63;95331.75;4961406;28;20285;-69
2022/05/11 08:04:35;;;;;;;7.20;4.45;;;;;;;17.55;42.38;95327.69;4964068;28;20232;-67
2022/05/11 08:07:00;;;;;;;5.72;3.80;;;;;;;17.52;43.49;95328.06;4971108;28;20232;-66
2022/05/11 08:09:26;;;;;;;6.38;4.20;;;;;;;17.67;43.80;95332.50;4973065;28;20255;-67
2022/05/11 08:11:53;;;;;;;4.78;4.32;;;;;;;17.76;42.88;95329.56;4968402;28;20224;-67
2022/05/11 08:14:19;;;;;;;8.38;4.25;;;;;;;17.67;42.41;95329.84;4968937;28;20232;-69
2022/05/11 08:16:44;;;;;;;6.35;4.07;;;;;;;17.71;42.33;95321.31;4963874;28;20236;-73
2022/05/11 08:19:12;;;;;;;4.57;3.50;;;;;;;17.74;41.76;95312.94;4977206;28;20224;-71
2022/05/11 08:21:37;;;;;;;6.53;4.30;;;;;;;17.93;40.81;95316.84;4978934;28;20208;-70
2022/05/11 08:24:03;;;;;;;7.50;3.85;;;;;;;18.06;41.52;95324.16;4969284;28;20211;-68
2022/05/11 08:26:29;;;;;;;5.35;3.70;;;;;;;18.05;41.82;95315.34;4968413;28;20234;-71
2022/05/11 08:28:55;;;;;;;6.90;3.00;;;;;;;18.12;41.83;95315.41;4962702;28;20310;-69
2022/05/11 08:34:04;;;;;;;8.25;3.58;;;;;;;18.26;39.95;95311.03;4958252;28;20243;-71
2022/05/11 08:36:30;;;;;;;4.88;3.40;;;;;;;18.34;39.45;95313.56;4956304;28;20233;-68
2022/05/11 08:39:00;;;;;;;4.57;3.00;;;;;;;18.36;39.75;95314.16;4972138;28;20274;-69
2022/05/11 08:41:36;;;;;;;4.55;3.10;;;;;;;18.38;39.58;95312.13;4961853;28;20232;-69
2022/05/11 08:44:17;;;;;;;4.20;3.58;;;;;;;18.49;38.64;95318.78;4972337;28;20224;-68
2022/05/11 08:47:08;;;;;;;4.03;2.88;;;;;;;18.41;38.20;95319.72;4979406;28;20254;-67
2022/05/11 08:49:49;;;;;;;4.97;2.60;;;;;;;18.47;38.02;95323.47;4970725;28;20217;-67
2022/05/11 08:52:24;;;;;;;3.33;3.03;;;;;;;18.46;37.57;95319.16;4972166;28;20366;-64
2022/05/11 08:55:13;;;;;;;4.00;3.00;;;;;;;18.49;37.75;95316.94;4960836;28;20231;-66
2022/05/11 08:57:41;;;;;;;4.28;2.70;;;;;;;18.49;37.84;95316.94;4929740;28;20335;-70
2022/05/11 09:00:18;;;;;;;3.03;2.83;;;;;;;18.62;37.18;95312.72;4930864;29;20299;-68
2022/05/11 09:02:49;;;;;;;3.28;2.83;;;;;;;18.68;36.68;95322.59;4944729;28;20952;-67
2022/05/11 09:05:17;;;;;;;3.75;2.83;;;;;;;18.51;37.72;95312.25;4929906;28;20731;-67
2022/05/11 09:07:52;;;;;;;4.97;2.83;;;;;;;18.64;37.13;95311.53;4940965;28;20239;-67
2022/05/11 09:10:39;;;;;;;2.63;2.33;;;;;;;18.66;36.28;95308.66;4914674;28;20227;-67
2022/05/11 09:13:08;;;;;;;4.50;2.60;;;;;;;18.84;35.90;95309.00;4930345;29;20371;-67
2022/05/11 09:15:47;;;;;;;3.78;2.42;;;;;;;19.05;36.36;95309.94;4929697;28;20213;-69
2022/05/11 09:18:13;;;;;;;5.13;3.47;;;;;;;19.19;36.73;95316.97;4923895;28;20204;-64
2022/05/11 09:20:45;;;;;;;3.05;2.70;;;;;;;19.29;35.77;95317.44;4927446;29;20259;-66
2022/05/11 09:23:11;;;;;;;3.15;2.40;;;;;;;19.30;34.92;95304.94;4944569;28;20221;-65
2022/05/11 09:25:56;;;;;;;4.80;2.92;;;;;;;19.47;35.51;95300.91;4926995;28;20595;-62
2022/05/11 09:28:26;;;;;;;3.55;2.67;;;;;;;19.64;34.63;95300.53;4929675;28;20313;-67
2022/05/11 09:31:13;;;;;;;2.95;2.65;;;;;;;19.96;35.23;95301.66;4936878;28;20228;-64
2022/05/11 09:33:42;;;;;;;3.63;3.13;;;;;;;20.19;35.14;95304.78;4929270;28;20668;-64
2022/05/11 09:36:10;;;;;;;3.40;2.58;;;;;;;20.11;34.00;95301.50;4967813;28;20609;-65
2022/05/11 09:38:40;;;;;;;3.85;2.72;;;;;;;20.17;33.46;95296.16;4960853;28;20647;-65
2022/05/11 09:41:18;;;;;;;3.42;2.53;;;;;;;20.22;33.69;95304.38;4953847;28;20256;-64
2022/05/11 09:43:46;;;;;;;4.05;2.58;;;;;;;20.00;34.06;95300.25;4952547;28;20229;-64
2022/05/11 09:46:27;;;;;;;3.10;2.38;;;;;;;20.32;34.73;95301.31;4967524;28;20224;-68
2022/05/11 09:49:11;;;;;;;4.45;2.40;;;;;;;20.51;32.86;95296.16;4958878;28;20232;-61
2022/05/11 09:51:44;;;;;;;3.08;2.30;;;;;;;20.80;32.26;95293.06;4963717;28;20506;-66
2022/05/11 09:54:48;;;;;;;2.97;2.47;;;;;;;20.81;32.83;95284.00;4961696;28;20236;-64
2022/05/11 09:57:29;;;;;;;4.47;2.85;;;;;;;21.03;32.09;95283.75;4961765;28;20220;-65
2022/05/11 10:00:21;;;;;;;5.30;2.60;;;;;;;21.07;31.51;95283.13;4968984;28;20235;-65
2022/05/11 10:02:53;;;;;;;3.97;2.80;;;;;;;21.08;31.79;95281.28;4957062;28;20249;-64
2022/05/11 10:05:26;;;;;;;2.80;2.60;;;;;;;21.27;31.36;95275.03;4957730;28;20250;-64
2022/05/11 10:08:08;;;;;;;3.33;2.60;;;;;;;21.49;30.99;95272.94;4977810;28;20236;-63
2022/05/11 10:10:37;;;;;;;4.55;2.58;;;;;;;21.57;29.77;95274.50;4973851;28;20231;-66
2022/05/11 10:13:20;;;;;;;3.25;2.53;;;;;;;21.72;30.15;95267.03;4987689;28;20239;-64
2022/05/11 10:21:53;;;;;;;2.67;2.22;;;;;;;21.70;29.93;95268.28;4964023;28;20762;-63
2022/05/11 10:24:58;;;;;;;2.53;2.22;;;;;;;21.55;32.49;95260.53;4964648;28;20241;-69
2022/05/11 10:27:42;;;;;;;2.95;2.60;;;;;;;21.46;31.62;95259.13;4964083;28;20227;-69
2022/05/11 10:30:23;;;;;;;3.03;2.72;;;;;;;21.49;31.49;95259.56;4978766;28;20216;-68
2022/05/11 10:33:09;;;;;;;5.97;2.65;;;;;;;21.72;31.85;95250.97;4973773;28;20261;-68
2022/05/11 10:35:53;;;;;;;4.65;2.97;;;;;;;21.82;30.62;95266.56;4979094;28;20259;-67
2022/05/11 10:38:24;;;;;;;3.60;2.28;;;;;;;21.82;29.80;95258.53;4962398;28;20732;-68
2022/05/11 10:41:31;;;;;;;3.75;2.75;;;;;;;22.26;30.82;95267.50;4981362;28;20308;-69
2022/05/11 10:44:30;;;;;;;2.90;2.22;;;;;;;22.56;29.74;95267.69;4979724;28;20314;-68
2022/05/11 10:47:16;;;;;;;3.08;2.55;;;;;;;22.67;28.51;95263.44;4976303;28;20328;-62
2022/05/11 10:50:01;;;;;;;5.03;2.50;;;;;;;23.06;28.07;95258.72;4976481;28;20246;-63
2022/05/11 10:52:27;;;;;;;3.75;2.47;;;;;;;23.40;28.30;95249.25;4965455;28;20232;-62
2022/05/11 10:55:11;;;;;;;3.38;2.30;;;;;;;23.53;27.87;95248.25;4978930;28;20243;-64
2022/05/11 10:57:48;;;;;;;3.47;3.15;;;;;;;23.36;28.64;95252.59;4980690;28;20224;-62
2022/05/11 11:00:18;;;;;;;3.30;2.58;;;;;;;23.27;28.75;95252.91;4968893;28;20243;-65
2022/05/11 11:03:12;;;;;;;2.97;2.75;;;;;;;23.54;30.82;95261.44;4960555;28;20228;-65
2022/05/11 11:09:16;;;;;;;3.55;3.08;;;;;;;22.68;28.46;95270.44;4930287;29;20240;-69
2022/05/11 11:11:52;;;;;;;3.10;2.78;;;;;;;22.79;30.48;95264.34;4925476;29;20234;-64
2022/05/11 11:14:31;;;;;;;8.82;3.00;;;;;;;22.50;33.09;95263.19;4931817;29;20220;-64
2022/05/11 11:16:57;;;;;;;7.10;2.63;;;;;;;22.62;34.00;95261.44;4929850;29;20264;-63
2022/05/11 11:19:24;;;;;;;7.50;3.05;;;;;;;22.24;33.74;95269.59;4914012;29;20443;-63
2022/05/11 11:21:50;;;;;;;8.88;3.35;;;;;;;22.05;34.03;95265.16;4927464;29;20229;-63
2022/05/11 11:24:34;;;;;;;8.90;2.75;;;;;;;22.33;33.48;95281.66;4924422;29;20608;-62
2022/05/11 11:27:05;;;;;;;5.57;3.42;;;;;;;22.33;32.98;95283.53;4907300;29;20308;-63
2022/05/11 11:29:35;;;;;;;6.43;2.83;;;;;;;22.05;32.79;95281.22;4930345;29;20232;-63
2022/05/11 11:32:14;;;;;;;2.97;2.60;;;;;;;21.96;32.29;95278.81;4924547;29;20229;-63
2022/05/11 11:35:08;;;;;;;3.40;2.00;;;;;;;21.48;32.14;95276.63;4907963;29;20275;-63
2022/05/11 11:37:39;;;;;;;4.50;2.25;;;;;;;21.38;33.10;95270.09;4912798;29;20238;-66
2022/05/11 11:40:13;;;;;;;3.10;2.08;;;;;;;21.57;34.35;95279.84;4909312;29;20238;-64
2022/05/11 11:42:44;;;;;;;2.53;2.20;;;;;;;21.81;38.00;95280.97;4957299;28;20226;-64
2022/05/11 11:45:29;;;;;;;3.72;1.80;;;;;;;21.95;37.54;95282.53;4976276;28;20201;-63
2022/05/11 11:48:34;;;;;;;2.08;1.90;;;;;;;22.09;34.49;95285.13;4959011;28;20267;-63
2022/05/11 11:51:03;;;;;;;3.95;2.40;;;;;;;22.10;33.83;95289.44;4968811;28;20208;-63
2022/05/11 11:53:38;;;;;;;2.70;1.83;;;;;;;22.22;32.98;95290.41;4972517;28;20225;-63
2022/05/11 11:56:27;;;;;;;3.92;2.20;;;;;;;22.32;32.24;95290.75;4957616;28;20230;-63
2022/05/11 11:59:06;;;;;;;1.90;1.63;;;;;;;22.60;32.42;95290.31;4951241;28;20233;-63
2022/05/11 12:01:48;;;;;;;2.58;1.80;;;;;;;22.67;31.94;95279.53;4953044;28;20229;-63
2022/05/11 12:04:40;;;;;;;3.35;2.20;;;;;;;22.92;31.05;95282.16;4935328;28;20221;-62
2022/05/11 12:15:39;;;;;;;2.05;1.80;;;;;;;22.17;29.41;95284.84;4964955;28;20263;-61
2022/05/11 12:18:26;;;;;;;4.05;2.17;;;;;;;22.29;30.25;95277.78;4964090;28;20208;-62
2022/05/11 12:20:53;;;;;;;3.55;1.70;;;;;;;22.34;29.75;95279.81;4977629;28;20227;-63
2022/05/11 12:23:46;;;;;;;3.33;1.58;;;;;;;22.38;29.61;95284.53;4983005;28;20612;-63
2022/05/11 12:26:24;;;;;;;2.50;1.90;;;;;;;22.21;30.68;95281.56;4979930;28;20704;-63